createdAt,value
2017-11-14T00:01:39.670Z,96157
2017-11-14T00:04:10.053Z,96161
2017-11-14T00:06:40.046Z,96175
2017-11-14T00:09:10.073Z,96172
2017-11-14T00:11:40.184Z,96172
2017-11-14T00:14:10.864Z,96170
2017-11-14T00:16:40.778Z,96168
2017-11-14T00:19:11.778Z,96172
2017-11-14T00:21:42.171Z,96165
2017-11-14T00:24:12.383Z,96085
2017-11-14T00:26:41.808Z,96175
2017-11-14T00:29:11.034Z,96176
2017-11-14T00:31:40.354Z,96182
2017-11-14T00:34:09.499Z,96177
2017-11-14T00:36:39.623Z,96171
2017-11-14T00:39:09.576Z,96178
2017-11-14T00:41:38.665Z,96182
2017-11-14T00:44:15.331Z,96183
2017-11-14T00:46:50.869Z,96190
2017-11-14T00:49:20.706Z,96188
2017-11-14T00:51:50.031Z,96187
2017-11-14T00:54:19.210Z,96182
2017-11-14T00:56:54.625Z,96196
2017-11-14T00:59:24.621Z,96203
2017-11-14T01:01:54.009Z,96200
2017-11-14T01:04:24.285Z,96212
2017-11-14T01:06:59.234Z,96211
2017-11-14T01:09:28.596Z,96215
2017-11-14T01:12:02.027Z,96211
2017-11-14T01:14:31.573Z,96207
2017-11-14T01:17:01.240Z,96204
2017-11-14T01:19:37.061Z,96219
2017-11-14T01:22:06.586Z,96219
2017-11-14T01:24:36.370Z,96228
2017-11-14T01:27:06.546Z,96242
2017-11-14T01:29:37.453Z,96231
2017-11-14T01:32:08.494Z,96227
2017-11-14T01:34:38.977Z,96227
2017-11-14T01:37:09.153Z,96232
2017-11-14T01:39:40.242Z,96223
2017-11-14T01:42:16.662Z,96212
2017-11-14T01:44:47.122Z,96219
2017-11-14T01:47:17.380Z,96219
2017-11-14T01:49:49.731Z,96219
2017-11-14T01:52:21.844Z,96215
2017-11-14T01:54:53.050Z,96216
2017-11-14T01:57:23.977Z,96216
2017-11-14T01:59:55.255Z,96228
2017-11-14T02:02:25.511Z,96222
2017-11-14T02:04:56.096Z,96216
2017-11-14T02:07:28.365Z,96222
2017-11-14T02:10:00.705Z,96212
2017-11-14T02:12:31.386Z,96217
2017-11-14T02:15:06.806Z,96217
2017-11-14T02:17:38.163Z,96223
2017-11-14T02:20:09.806Z,96233
2017-11-14T02:22:46.387Z,96235
2017-11-14T02:25:18.414Z,96232
2017-11-14T02:28:02.210Z,96240
2017-11-14T02:30:34.658Z,96235
2017-11-14T02:33:07.494Z,96239
2017-11-14T02:35:41.500Z,96244
2017-11-14T02:40:50.812Z,96237
2017-11-14T02:43:24.893Z,96239
2017-11-14T02:46:04.068Z,96242
2017-11-14T02:48:39.522Z,96253
2017-11-14T02:51:17.565Z,96258
2017-11-14T02:53:57.478Z,96258
2017-11-14T02:56:31.715Z,96265
2017-11-14T02:59:10.029Z,96264
2017-11-14T03:01:48.434Z,96270
2017-11-14T03:04:19.454Z,96271
2017-11-14T03:06:49.108Z,96262
2017-11-14T03:09:22.131Z,96269
2017-11-14T03:12:06.034Z,96279
2017-11-14T03:14:43.739Z,96274
2017-11-14T03:17:14.053Z,96278
2017-11-14T03:19:45.620Z,96286
2017-11-14T03:22:17.054Z,96277
2017-11-14T03:24:51.027Z,96276
2017-11-14T03:27:23.495Z,96275
2017-11-14T03:29:53.205Z,96281
2017-11-14T03:32:37.717Z,96286
2017-11-14T03:35:09.860Z,96288
2017-11-14T03:37:40.753Z,96286
2017-11-14T03:40:11.889Z,96294
2017-11-14T03:42:44.159Z,96300
2017-11-14T03:45:13.624Z,96304
2017-11-14T03:47:44.514Z,96303
2017-11-14T03:50:17.851Z,96308
2017-11-14T03:52:47.735Z,96310
2017-11-14T03:55:20.688Z,96312
2017-11-14T03:57:51.490Z,96313
2017-11-14T04:00:21.188Z,96314
2017-11-14T04:02:52.432Z,96326
2017-11-14T04:05:22.441Z,96311
2017-11-14T04:07:52.952Z,96318
2017-11-14T04:10:25.377Z,96322
2017-11-14T04:12:55.837Z,96331
2017-11-14T04:15:26.155Z,96331
2017-11-14T04:17:56.778Z,96335
2017-11-14T04:20:27.714Z,96338
2017-11-14T04:22:59.090Z,96336
2017-11-14T04:25:29.689Z,96338
2017-11-14T04:28:05.998Z,96347
2017-11-14T04:30:34.982Z,96343
2017-11-14T04:33:08.772Z,96344
2017-11-14T04:35:43.804Z,96339
2017-11-14T04:38:16.701Z,96346
2017-11-14T04:40:59.157Z,96340
2017-11-14T05:14:03.189Z,96358
2017-11-14T05:16:46.576Z,96357
2017-11-14T05:19:16.047Z,96364
2017-11-14T05:21:45.880Z,96360
2017-11-14T05:24:15.426Z,96375
2017-11-14T05:26:49.401Z,96374
2017-11-14T05:29:18.865Z,96378
2017-11-14T05:31:47.562Z,96383
2017-11-14T05:34:16.235Z,96386
2017-11-14T05:36:57.338Z,96386
2017-11-14T05:39:26.069Z,96380
2017-11-14T05:41:54.766Z,96389
2017-11-14T05:44:23.474Z,96392
2017-11-14T05:46:58.358Z,96395
2017-11-14T05:49:27.040Z,96398
2017-11-14T05:51:55.749Z,96387
2017-11-14T05:54:24.441Z,96396
2017-11-14T05:56:54.013Z,96399
2017-11-14T05:59:22.761Z,96399
2017-11-14T06:01:51.431Z,96399
2017-11-14T06:04:24.452Z,96402
2017-11-14T06:06:59.868Z,96416
2017-11-14T06:09:28.593Z,96419
2017-11-14T06:11:58.063Z,96419
2017-11-14T06:14:26.770Z,96425
2017-11-14T06:16:58.441Z,96424
2017-11-14T06:19:34.141Z,96434
2017-11-14T06:22:02.821Z,96431
2017-11-14T06:24:31.493Z,96434
2017-11-14T06:27:06.309Z,96449
2017-11-14T06:29:34.995Z,96440
2017-11-14T06:32:03.688Z,96435
2017-11-14T06:34:32.366Z,96442
2017-11-14T06:37:01.045Z,96437
2017-11-14T06:39:33.728Z,96439
2017-11-14T06:42:03.163Z,96457
2017-11-14T06:44:31.864Z,96461
2017-11-14T06:47:00.582Z,96464
2017-11-14T06:49:30.059Z,96475
2017-11-14T06:51:58.752Z,96474
2017-11-14T06:54:29.298Z,96479
2017-11-14T06:56:57.961Z,96479
2017-11-14T07:18:17.604Z,96399
2017-11-14T07:20:46.317Z,96500
2017-11-14T07:23:15.013Z,96498
2017-11-14T07:25:43.692Z,96506
2017-11-14T07:28:18.518Z,96507
2017-11-14T07:30:53.505Z,96491
2017-11-14T07:33:22.988Z,96495
2017-11-14T07:35:51.667Z,96497
2017-11-14T07:38:20.341Z,96498
2017-11-14T07:40:49.023Z,96503
2017-11-14T07:43:19.716Z,96508
2017-11-14T07:45:48.457Z,96501
2017-11-14T07:48:23.255Z,96505
2017-11-14T07:50:51.928Z,96506
2017-11-14T07:53:20.595Z,96505
2017-11-14T07:55:55.572Z,96500
2017-11-14T07:58:24.249Z,96495
2017-11-14T08:00:59.306Z,96501
2017-11-14T08:03:34.301Z,96495
2017-11-14T08:06:02.996Z,96492
2017-11-14T08:08:31.671Z,96493
2017-11-14T08:11:00.348Z,96502
2017-11-14T08:13:29.041Z,96500
2017-11-14T08:15:57.740Z,96499
2017-11-14T08:18:32.668Z,96502
2017-11-14T08:21:11.572Z,96509
2017-11-14T08:23:46.396Z,96432
2017-11-14T08:26:15.076Z,96505
2017-11-14T08:28:43.801Z,96520
2017-11-14T08:31:18.777Z,96503
2017-11-14T08:33:47.460Z,96513
2017-11-14T08:36:16.908Z,96499
2017-11-14T08:38:46.449Z,96495
2017-11-14T08:41:15.143Z,96495
2017-11-14T08:43:43.836Z,96492
2017-11-14T08:46:12.561Z,96493
2017-11-14T08:48:41.236Z,96502
2017-11-14T08:51:09.916Z,96498
2017-11-14T08:53:41.624Z,96503
2017-11-14T08:56:10.300Z,96503
2017-11-14T08:58:38.985Z,96501
2017-11-14T09:01:13.933Z,96504
2017-11-14T09:03:42.629Z,96517
2017-11-14T09:06:12.184Z,96500
2017-11-14T09:08:40.904Z,96510
2017-11-14T09:11:09.601Z,96500
2017-11-14T09:13:38.285Z,96503
2017-11-14T09:16:06.987Z,96502
2017-11-14T09:18:36.498Z,96510
2017-11-14T09:21:05.959Z,96508
2017-11-14T09:23:35.459Z,96519
2017-11-14T09:26:04.160Z,96519
2017-11-14T09:28:32.856Z,96512
2017-11-14T09:31:07.716Z,96516
2017-11-14T09:33:42.638Z,96527
2017-11-14T09:36:17.608Z,96528
2017-11-14T09:38:52.545Z,96520
2017-11-14T09:41:22.099Z,96519
2017-11-14T09:43:50.790Z,96516
2017-11-14T09:46:19.479Z,96512
2017-11-14T09:48:48.950Z,96517
2017-11-14T09:51:23.866Z,96515
2017-11-14T09:53:58.841Z,96515
2017-11-14T09:56:33.773Z,96514
2017-11-14T09:59:08.706Z,96511
2017-11-14T10:01:37.397Z,96516
2017-11-14T10:04:06.893Z,96515
2017-11-14T10:06:41.824Z,96513
2017-11-14T10:09:10.521Z,96515
2017-11-14T10:11:39.977Z,96519
2017-11-14T10:14:08.660Z,96522
2017-11-14T10:16:43.606Z,96517
2017-11-14T10:19:12.297Z,96513
2017-11-14T10:21:41.004Z,96520
2017-11-14T10:24:15.800Z,96514
2017-11-14T10:26:44.484Z,96507
2017-11-14T10:29:14.048Z,96500
2017-11-14T10:31:42.741Z,96489
2017-11-14T10:34:11.446Z,96495
2017-11-14T10:36:40.141Z,96502
2017-11-14T10:39:09.681Z,96497
2017-11-14T10:41:44.605Z,96492
2017-11-14T10:44:13.286Z,96497
2017-11-14T10:46:42.842Z,96497
2017-11-14T10:49:11.542Z,96496
2017-11-14T10:51:40.312Z,96487
2017-11-14T10:54:09.003Z,96487
2017-11-14T10:56:43.962Z,96489
2017-11-14T10:59:12.657Z,96491
2017-11-14T11:01:41.341Z,96503
2017-11-14T11:04:11.718Z,96502
2017-11-14T11:06:42.071Z,96501
2017-11-14T11:09:16.920Z,96499
2017-11-14T11:11:45.608Z,96504
2017-11-14T11:14:14.316Z,96497
2017-11-14T11:16:43.033Z,96495
2017-11-14T11:19:12.480Z,96503
2017-11-14T11:21:47.326Z,96500
2017-11-14T11:24:16.012Z,96500
2017-11-14T11:26:44.707Z,96494
2017-11-14T11:29:15.276Z,96502
2017-11-14T11:31:48.166Z,96498
2017-11-14T11:34:23.130Z,96506
2017-11-14T11:36:51.840Z,96500
2017-11-14T11:39:20.545Z,96499
2017-11-14T11:41:49.993Z,96493
2017-11-14T11:44:18.688Z,96498
2017-11-14T11:46:47.378Z,96501
2017-11-14T11:49:17.702Z,96498
2017-11-14T11:51:46.383Z,96508
2017-11-14T11:54:15.083Z,96507
2017-11-14T11:56:43.855Z,96512
2017-11-14T11:59:12.569Z,96512
2017-11-14T12:01:41.264Z,96502
2017-11-14T12:04:10.726Z,96524
2017-11-14T12:06:41.257Z,96503
2017-11-14T12:09:09.949Z,96495
2017-11-14T12:11:38.644Z,96489
2017-11-14T12:14:08.240Z,96488
2017-11-14T12:16:36.952Z,96488
2017-11-14T12:19:05.697Z,96477
2017-11-14T12:21:35.255Z,96294
2017-11-14T12:24:07.964Z,96474
2017-11-14T12:26:43.014Z,96467
2017-11-14T12:29:11.700Z,96469
2017-11-14T12:31:40.785Z,96473
2017-11-14T12:34:16.365Z,96474
2017-11-14T12:36:45.051Z,96476
2017-11-14T12:39:13.745Z,96490
2017-11-14T12:41:48.741Z,96495
2017-11-14T12:44:17.469Z,96487
2017-11-14T12:46:46.156Z,96491
2017-11-14T12:49:14.847Z,96486
2017-11-14T12:51:43.533Z,96478
2017-11-14T12:54:12.705Z,96475
2017-11-14T12:56:41.407Z,96471
2017-11-14T12:59:10.140Z,96472
2017-11-14T13:01:39.601Z,96476
2017-11-14T13:04:14.737Z,96463
2017-11-14T13:06:43.507Z,96466
2017-11-14T13:09:12.256Z,96467
2017-11-14T13:11:47.992Z,96468
2017-11-14T13:14:22.761Z,96467
2017-11-14T13:16:51.465Z,96465
2017-11-14T13:19:20.261Z,96458
2017-11-14T13:21:55.288Z,96461
2017-11-14T13:24:30.238Z,96467
2017-11-14T13:26:58.998Z,96462
2017-11-14T13:29:28.629Z,96477
2017-11-14T13:32:04.378Z,96463
2017-11-14T13:34:39.223Z,96495
2017-11-14T13:37:10.685Z,96475
2017-11-14T13:39:40.380Z,96469
2017-11-14T13:42:09.101Z,96468
2017-11-14T13:44:44.093Z,96465
2017-11-14T13:47:13.431Z,96468
2017-11-14T13:49:42.160Z,96472
2017-11-14T13:52:10.859Z,96475
2017-11-14T13:54:45.807Z,96473
2017-11-14T13:57:15.280Z,96484
2017-11-14T13:59:50.255Z,96491
2017-11-14T14:02:26.106Z,96497
2017-11-14T14:04:55.719Z,96500
2017-11-14T14:07:30.525Z,96500
2017-11-14T14:10:05.386Z,96500
2017-11-14T14:12:40.366Z,96504
2017-11-14T14:15:15.421Z,96505
2017-11-14T14:17:44.118Z,96504
2017-11-14T14:20:12.796Z,96515
2017-11-14T14:22:41.584Z,96513
2017-11-14T14:25:11.053Z,96447
2017-11-14T14:27:40.560Z,96534
2017-11-14T14:30:13.301Z,96542
2017-11-14T14:32:48.142Z,96553
2017-11-14T14:35:17.704Z,96548
2017-11-14T14:37:46.393Z,96548
2017-11-14T14:40:15.089Z,96542
2017-11-14T14:42:50.053Z,96542
2017-11-14T14:45:18.745Z,96543
2017-11-14T14:47:47.424Z,96549
2017-11-14T14:50:17.072Z,96556
2017-11-14T14:52:47.383Z,96546
2017-11-14T14:55:22.252Z,96557
2017-11-14T14:57:57.066Z,96548
2017-11-14T15:00:31.904Z,96543
2017-11-14T15:03:07.626Z,96554
2017-11-14T15:05:37.164Z,96561
2017-11-14T15:08:11.954Z,96567
2017-11-14T15:10:40.649Z,96570
2017-11-14T15:13:09.333Z,96562
2017-11-14T15:15:38.016Z,96562
2017-11-14T15:18:07.550Z,96566
2017-11-14T15:20:42.353Z,96562
2017-11-14T15:23:17.371Z,96568
2017-11-14T15:25:46.068Z,96570
2017-11-14T15:28:14.765Z,96567
2017-11-14T15:30:43.449Z,96561
2017-11-14T15:33:12.151Z,96572
2017-11-14T15:35:40.846Z,96567
2017-11-14T15:38:09.526Z,96569
2017-11-14T15:40:44.389Z,96577
2017-11-14T15:43:13.065Z,96579
2017-11-14T15:45:42.529Z,96578
2017-11-14T15:48:11.198Z,96580
2017-11-14T15:50:39.890Z,96575
2017-11-14T15:53:14.796Z,96576
2017-11-14T15:55:49.684Z,96580
2017-11-14T15:58:18.393Z,96576
2017-11-14T16:00:53.388Z,96578
2017-11-14T16:03:22.064Z,96567
2017-11-14T16:05:51.630Z,96583
2017-11-14T16:08:20.324Z,96582
2017-11-14T16:10:55.309Z,96581
2017-11-14T16:13:24.972Z,96586
2017-11-14T16:16:00.523Z,96583
2017-11-14T16:18:35.376Z,96589
2017-11-14T16:21:04.044Z,96598
2017-11-14T16:23:33.586Z,96600
2017-11-14T16:26:02.265Z,96599
2017-11-14T16:28:30.978Z,96604
2017-11-14T16:31:05.722Z,96605
2017-11-14T16:33:34.418Z,96609
2017-11-14T16:36:03.092Z,96601
2017-11-14T16:38:31.783Z,96607
2017-11-14T16:41:06.816Z,96605
2017-11-14T16:43:35.496Z,96611
2017-11-14T16:46:10.356Z,96613
2017-11-14T16:48:41.012Z,96620
2017-11-14T16:51:09.782Z,96648
2017-11-14T16:53:38.661Z,96627
2017-11-14T16:56:13.676Z,96621
2017-11-14T16:58:42.421Z,96625
2017-11-14T17:01:11.080Z,96619
2017-11-14T17:03:46.008Z,96621
2017-11-14T17:06:14.698Z,96617
2017-11-14T17:08:49.595Z,96616
2017-11-14T17:11:18.281Z,96616
2017-11-14T17:13:53.241Z,96623
2017-11-14T17:16:21.926Z,96625
2017-11-14T17:18:50.986Z,96632
2017-11-14T17:21:19.831Z,96616
2017-11-14T17:23:55.454Z,96627
2017-11-14T17:26:30.341Z,96631
2017-11-14T17:28:59.797Z,96630
2017-11-14T17:31:34.806Z,96631
2017-11-14T17:34:07.340Z,96630
2017-11-14T17:36:36.859Z,96633
2017-11-14T17:39:11.903Z,96644
2017-11-14T17:41:46.800Z,96640
2017-11-14T17:44:15.486Z,96646
2017-11-14T17:46:45.194Z,96647
2017-11-14T17:49:14.838Z,96663
2017-11-14T17:51:49.753Z,96666
2017-11-14T17:54:24.705Z,96658
2017-11-14T17:57:00.455Z,96660
2017-11-14T17:59:35.284Z,96668
2017-11-14T18:02:05.109Z,96666
2017-11-14T18:04:33.800Z,96661
2017-11-14T18:07:08.660Z,96671
2017-11-14T18:09:37.332Z,96669
2017-11-14T18:12:12.289Z,96667
2017-11-14T18:14:47.384Z,96673
2017-11-14T18:17:16.116Z,96689
2017-11-14T18:19:44.805Z,96681
2017-11-14T18:22:13.485Z,96676
2017-11-14T18:24:53.286Z,96681
2017-11-14T18:27:21.998Z,96686
2017-11-14T18:29:50.690Z,96688
2017-11-14T18:32:19.375Z,96690
2017-11-14T18:34:54.313Z,96685
2017-11-14T18:37:29.117Z,96695
2017-11-14T18:39:57.930Z,96686
2017-11-14T18:42:27.511Z,96699
2017-11-14T18:45:02.779Z,96692
2017-11-14T18:47:32.197Z,96695
2017-11-14T18:50:00.873Z,96695
2017-11-14T18:52:29.552Z,96693
2017-11-14T18:55:00.997Z,96693
2017-11-14T18:57:35.910Z,96699
2017-11-14T19:00:04.622Z,96707
2017-11-14T19:02:36.999Z,96702
2017-11-14T19:05:06.046Z,96704
2017-11-14T19:07:38.987Z,96703
2017-11-14T19:10:08.273Z,96698
2017-11-14T19:12:36.997Z,96707
2017-11-14T19:15:05.829Z,96702
2017-11-14T19:17:40.632Z,96702
2017-11-14T19:20:15.506Z,96706
2017-11-14T19:22:53.821Z,96702
2017-11-14T19:25:28.683Z,96703
2017-11-14T19:27:57.381Z,96705
2017-11-14T19:30:26.812Z,96711
2017-11-14T19:32:55.573Z,96708
2017-11-14T19:35:30.942Z,96708
2017-11-14T19:38:05.861Z,96710
2017-11-14T19:40:45.594Z,96700
2017-11-14T19:43:14.293Z,96710
2017-11-14T19:45:42.990Z,96111
2017-11-14T19:48:15.116Z,96704
2017-11-14T19:50:43.806Z,96705
2017-11-14T19:53:20.660Z,96701
2017-11-14T19:55:55.602Z,96703
2017-11-14T19:58:26.007Z,96701
2017-11-14T20:00:54.733Z,96702
2017-11-14T20:03:33.002Z,96704
2017-11-14T20:06:07.826Z,96705
2017-11-14T20:08:42.703Z,96718
2017-11-14T20:11:12.417Z,96718
2017-11-14T20:13:47.413Z,96722
2017-11-14T20:16:16.889Z,96720
2017-11-14T20:18:45.601Z,96721
2017-11-14T20:21:19.498Z,96729
2017-11-14T20:23:48.177Z,96748
2017-11-14T20:26:18.825Z,96725
2017-11-14T20:28:47.565Z,96728
2017-11-14T20:31:16.605Z,96725
2017-11-14T20:33:49.176Z,96732
2017-11-14T20:36:22.876Z,96721
2017-11-14T20:38:57.840Z,96724
2017-11-14T20:41:31.611Z,96718
2017-11-14T20:44:00.377Z,96720
2017-11-14T20:46:30.007Z,96723
2017-11-14T20:49:04.865Z,96724
2017-11-14T20:51:34.627Z,96721
2017-11-14T20:54:03.381Z,96715
2017-11-14T20:56:32.153Z,96723
2017-11-14T20:59:02.191Z,96718
2017-11-14T21:01:31.852Z,96719
2017-11-14T21:04:06.711Z,96721
2017-11-14T21:06:35.388Z,96721
2017-11-14T21:09:06.814Z,96723
2017-11-14T21:11:35.498Z,96730
2017-11-14T21:14:10.712Z,96725
2017-11-14T21:16:39.475Z,96728
2017-11-14T21:19:08.190Z,96721
2017-11-14T21:21:40.120Z,96729
2017-11-14T21:24:09.666Z,96725
2017-11-14T21:26:38.409Z,96716
2017-11-14T21:29:07.110Z,96717
2017-11-14T21:31:35.817Z,96723
2017-11-14T21:34:04.610Z,96726
2017-11-14T21:36:33.321Z,96731
2017-11-14T21:39:02.777Z,96725
2017-11-14T21:41:37.741Z,96724
2017-11-14T21:44:06.716Z,96722
2017-11-14T21:46:48.834Z,96729
2017-11-14T21:49:17.784Z,96729
2017-11-14T21:51:52.776Z,96732
2017-11-14T21:54:28.086Z,96729
2017-11-14T21:56:57.689Z,96733
2017-11-14T21:59:26.401Z,96729
2017-11-14T22:02:02.008Z,96736
2017-11-14T22:04:30.697Z,96724
2017-11-14T22:06:59.432Z,96731
2017-11-14T22:09:28.893Z,96731
2017-11-14T22:11:57.906Z,96725
2017-11-14T22:14:26.775Z,96719
2017-11-14T22:16:55.564Z,96728
2017-11-14T22:19:24.237Z,96728
2017-11-14T22:21:54.897Z,96728
2017-11-14T22:24:30.164Z,96723
2017-11-14T22:26:59.606Z,96723
2017-11-14T22:29:28.313Z,96718
2017-11-14T22:32:03.109Z,96720
2017-11-14T22:34:38.803Z,96720
2017-11-14T22:37:14.678Z,96707
2017-11-14T22:39:50.409Z,96707
2017-11-14T22:42:26.220Z,96706
2017-11-14T22:45:15.784Z,96713
2017-11-14T22:47:50.647Z,96710
2017-11-14T22:50:19.338Z,96705
2017-11-14T22:52:48.032Z,96720
2017-11-14T22:55:17.985Z,96717
2017-11-14T22:57:46.647Z,96717
2017-11-14T23:00:41.957Z,96707
2017-11-14T23:03:10.652Z,96720
2017-11-14T23:05:39.333Z,96724
2017-11-14T23:08:08.031Z,96718
2017-11-14T23:10:39.570Z,96710
2017-11-14T23:13:08.252Z,96742
2017-11-14T23:15:36.979Z,96720
2017-11-14T23:18:05.653Z,96706
2017-11-14T23:20:35.102Z,96720
2017-11-14T23:23:03.813Z,96716
2017-11-14T23:25:32.509Z,96712
2017-11-14T23:28:01.217Z,96712
2017-11-14T23:30:30.663Z,96710
2017-11-14T23:32:59.358Z,96702
2017-11-14T23:35:28.046Z,96700
2017-11-14T23:37:56.730Z,96699
2017-11-14T23:40:31.544Z,96697
2017-11-14T23:43:00.222Z,96695
2017-11-14T23:45:28.913Z,96698
2017-11-14T23:48:03.857Z,96693
2017-11-14T23:50:37.280Z,96694
2017-11-14T23:53:05.966Z,96690
2017-11-14T23:55:34.649Z,96700
2017-11-14T23:58:09.696Z,96707
